Time;durP1;ratioP1;P1;durP2;ratioP2;P2;SDS_P1;SDS_P2;PMS_P1;PMS_P2;Temp;Humidity;BMP_temperature;BMP_pressure;BME280_temperature;BME280_humidity;BME280_pressure;Samples;Min_cycle;Max_cycle;Signal;HPM_P1;HPM_P2
2022/05/21 00:00:29;;;;;;;0.10;0.10;;;;;;;;;;5037628;28;93411;-72
2022/05/21 00:02:56;;;;;;;0.00;0.00;;;;;;;;;;5038782;28;93892;-72
2022/05/21 00:05:23;;;;;;;0.13;0.13;;;;;;;;;;5037214;28;93373;-73
2022/05/21 00:07:49;;;;;;;0.00;0.00;;;;;;;;;;5037833;28;92508;-72
2022/05/21 00:10:16;;;;;;;0.00;0.00;;;;;;;;;;5037550;28;92235;-72
2022/05/21 00:12:43;;;;;;;0.00;0.00;;;;;;;;;;5037607;28;92517;-72
2022/05/21 00:15:11;;;;;;;0.00;0.00;;;;;;;;;;5035387;28;96113;-72
2022/05/21 00:17:37;;;;;;;0.00;0.00;;;;;;;;;;5037411;28;92220;-72
2022/05/21 00:20:07;;;;;;;0.00;0.00;;;;;;;;;;5036542;28;94382;-73
2022/05/21 00:22:33;;;;;;;0.10;0.10;;;;;;;;;;5037151;28;93648;-72
2022/05/21 00:25:00;;;;;;;0.00;0.00;;;;;;;;;;5040413;28;92349;-73
2022/05/21 00:27:26;;;;;;;0.00;0.00;;;;;;;;;;5036898;28;94040;-73
2022/05/21 00:29:53;;;;;;;0.00;0.00;;;;;;;;;;5037183;28;93647;-73
2022/05/21 00:32:19;;;;;;;0.00;0.00;;;;;;;;;;5037554;28;93333;-73
2022/05/21 00:34:45;;;;;;;0.00;0.00;;;;;;;;;;5036964;28;93017;-73
2022/05/21 00:37:12;;;;;;;0.00;0.00;;;;;;;;;;5037094;28;92288;-73
2022/05/21 00:39:38;;;;;;;0.00;0.00;;;;;;;;;;5035533;28;94900;-73
2022/05/21 00:42:05;;;;;;;0.00;0.00;;;;;;;;;;5036978;28;93898;-73
2022/05/21 00:44:31;;;;;;;0.30;0.30;;;;;;;;;;5037172;28;92619;-73
2022/05/21 00:46:58;;;;;;;0.00;0.00;;;;;;;;;;5039853;28;93815;-73
2022/05/21 00:49:28;;;;;;;0.00;0.00;;;;;;;;;;5036703;28;92376;-74
2022/05/21 00:52:04;;;;;;;0.00;0.00;;;;;;;;;;5037034;28;93985;-73
2022/05/21 00:54:32;;;;;;;0.00;0.00;;;;;;;;;;5036477;28;93900;-73
2022/05/21 00:57:01;;;;;;;1.15;1.08;;;;;;;;;;5037434;28;91497;-74
2022/05/21 01:02:15;;;;;;;0.00;0.00;;;;;;;;;;5036240;28;93560;-74
2022/05/21 01:04:44;;;;;;;0.00;0.00;;;;;;;;;;5035134;28;94735;-73
2022/05/21 01:07:11;;;;;;;0.00;0.00;;;;;;;;;;5039313;28;96526;-73
2022/05/21 01:09:39;;;;;;;0.00;0.00;;;;;;;;;;5036379;28;92472;-73
2022/05/21 01:12:06;;;;;;;0.52;0.38;;;;;;;;;;5036291;28;93418;-73
2022/05/21 01:14:32;;;;;;;0.00;0.00;;;;;;;;;;5037970;27;93554;-73
2022/05/21 01:16:59;;;;;;;0.00;0.00;;;;;;;;;;5039797;28;92303;-74
2022/05/21 01:19:26;;;;;;;0.00;0.00;;;;;;;;;;5039395;27;93608;-74
2022/05/21 01:21:52;;;;;;;0.00;0.00;;;;;;;;;;5040147;27;93136;-72
2022/05/21 01:24:19;;;;;;;0.00;0.00;;;;;;;;;;5038679;27;93343;-73
2022/05/21 01:26:45;;;;;;;0.00;0.00;;;;;;;;;;5039035;27;94104;-73
2022/05/21 01:29:14;;;;;;;0.00;0.00;;;;;;;;;;5042171;27;95990;-73
2022/05/21 01:31:46;;;;;;;0.00;0.00;;;;;;;;;;5039377;27;96376;-73
2022/05/21 01:34:13;;;;;;;0.00;0.00;;;;;;;;;;5038990;27;93950;-73
2022/05/21 01:36:39;;;;;;;0.00;0.00;;;;;;;;;;5039372;27;92436;-73
2022/05/21 01:39:06;;;;;;;0.00;0.00;;;;;;;;;;5041261;27;93584;-74
2022/05/21 01:41:32;;;;;;;0.00;0.00;;;;;;;;;;5038853;27;93590;-73
2022/05/21 01:46:44;;;;;;;0.20;0.20;;;;;;;;;;5039612;27;93619;-73
2022/05/21 01:49:11;;;;;;;0.08;0.08;;;;;;;;;;5020604;27;95503;-73
2022/05/21 01:51:37;;;;;;;2.65;0.30;;;;;;;;;;5041681;27;92329;-74
2022/05/21 01:54:04;;;;;;;0.28;0.28;;;;;;;;;;5037063;27;96073;-73
2022/05/21 01:56:30;;;;;;;0.00;0.00;;;;;;;;;;5038641;27;92449;-73
2022/05/21 01:58:57;;;;;;;0.20;0.20;;;;;;;;;;5023873;27;94214;-73
2022/05/21 02:01:25;;;;;;;0.13;0.13;;;;;;;;;;5038242;27;94529;-74
2022/05/21 02:03:51;;;;;;;0.00;0.00;;;;;;;;;;5038861;27;92375;-73
2022/05/21 02:06:17;;;;;;;0.05;0.05;;;;;;;;;;5038518;27;93745;-74
2022/05/21 02:08:44;;;;;;;0.10;0.10;;;;;;;;;;5042161;27;93553;-74
2022/05/21 02:11:10;;;;;;;0.43;0.43;;;;;;;;;;5039141;27;91734;-73
2022/05/21 02:13:36;;;;;;;0.00;0.00;;;;;;;;;;5041711;27;94440;-74
2022/05/21 02:16:03;;;;;;;0.85;0.85;;;;;;;;;;5038695;27;92455;-72
2022/05/21 02:18:30;;;;;;;0.00;0.00;;;;;;;;;;5039183;27;94894;-72
2022/05/21 02:20:56;;;;;;;0.00;0.00;;;;;;;;;;5039524;27;93620;-75
2022/05/21 02:23:23;;;;;;;0.00;0.00;;;;;;;;;;5038478;27;92346;-75
2022/05/21 02:25:49;;;;;;;0.00;0.00;;;;;;;;;;5037470;27;93623;-74
2022/05/21 02:28:16;;;;;;;0.10;0.10;;;;;;;;;;5038034;27;93500;-74
2022/05/21 02:30:42;;;;;;;0.00;0.00;;;;;;;;;;5038679;27;92227;-73
2022/05/21 02:33:09;;;;;;;0.00;0.00;;;;;;;;;;5038548;27;93284;-73
2022/05/21 02:35:35;;;;;;;0.00;0.00;;;;;;;;;;5041044;27;93203;-73
2022/05/21 02:40:47;;;;;;;0.03;0.03;;;;;;;;;;5041944;27;93502;-72
2022/05/21 02:43:14;;;;;;;0.10;0.10;;;;;;;;;;5036648;27;94752;-74
2022/05/21 02:45:41;;;;;;;0.00;0.00;;;;;;;;;;5038035;27;95183;-74
2022/05/21 02:48:07;;;;;;;0.00;0.00;;;;;;;;;;5037362;27;94099;-74
2022/05/21 02:50:34;;;;;;;0.00;0.00;;;;;;;;;;5038981;27;92409;-74
2022/05/21 02:53:02;;;;;;;0.20;0.20;;;;;;;;;;5038183;27;93365;-74
2022/05/21 02:55:28;;;;;;;0.47;0.47;;;;;;;;;;5037967;27;93446;-74
2022/05/21 02:57:55;;;;;;;0.10;0.10;;;;;;;;;;5041222;27;93539;-74
2022/05/21 03:00:23;;;;;;;0.00;0.00;;;;;;;;;;5044058;27;92852;-74
2022/05/21 03:02:51;;;;;;;0.00;0.00;;;;;;;;;;5036994;27;93134;-74
2022/05/21 03:05:17;;;;;;;0.00;0.00;;;;;;;;;;5037898;27;93562;-74
2022/05/21 03:07:46;;;;;;;0.00;0.00;;;;;;;;;;5035960;27;95963;-74
2022/05/21 03:10:23;;;;;;;0.00;0.00;;;;;;;;;;5039604;27;92357;-74
2022/05/21 03:13:00;;;;;;;0.00;0.00;;;;;;;;;;5037567;27;92893;-74
2022/05/21 03:15:29;;;;;;;0.00;0.00;;;;;;;;;;5037406;27;93552;-74
2022/05/21 03:17:55;;;;;;;0.00;0.00;;;;;;;;;;5041283;27;92386;-74
2022/05/21 03:20:22;;;;;;;0.00;0.00;;;;;;;;;;5039637;27;93490;-74
2022/05/21 03:22:49;;;;;;;0.00;0.00;;;;;;;;;;5037395;27;92441;-74
2022/05/21 03:25:15;;;;;;;0.17;0.17;;;;;;;;;;5038186;27;92865;-74
2022/05/21 03:27:43;;;;;;;0.00;0.00;;;;;;;;;;5036856;27;92905;-74
2022/05/21 03:30:12;;;;;;;0.00;0.00;;;;;;;;;;5040161;27;92225;-74
2022/05/21 03:32:38;;;;;;;0.60;0.60;;;;;;;;;;5035972;27;94774;-74
2022/05/21 03:35:05;;;;;;;0.00;0.00;;;;;;;;;;5037114;27;94118;-74
2022/05/21 03:37:31;;;;;;;0.00;0.00;;;;;;;;;;5036905;27;92363;-74
2022/05/21 03:39:59;;;;;;;0.00;0.00;;;;;;;;;;5042653;27;93421;-74
2022/05/21 03:42:29;;;;;;;1.60;0.20;;;;;;;;;;5037003;27;92346;-74
2022/05/21 03:44:56;;;;;;;0.25;0.25;;;;;;;;;;5037294;27;92609;-74
2022/05/21 03:47:22;;;;;;;0.00;0.00;;;;;;;;;;5037105;27;94024;-74
2022/05/21 03:49:49;;;;;;;0.00;0.00;;;;;;;;;;5040735;27;91788;-74
2022/05/21 03:52:15;;;;;;;0.00;0.00;;;;;;;;;;5037199;27;92572;-74
2022/05/21 03:54:41;;;;;;;0.00;0.00;;;;;;;;;;5036932;27;93728;-74
2022/05/21 03:57:10;;;;;;;0.00;0.00;;;;;;;;;;5035144;27;94835;-74
2022/05/21 03:59:37;;;;;;;14.80;1.67;;;;;;;;;;5040834;27;95281;-74
2022/05/21 04:02:05;;;;;;;0.20;0.20;;;;;;;;;;5039758;27;92864;-74
2022/05/21 04:04:32;;;;;;;0.00;0.00;;;;;;;;;;5037096;27;93255;-74
2022/05/21 04:06:58;;;;;;;0.00;0.00;;;;;;;;;;5019010;27;92859;-74
2022/05/21 04:09:28;;;;;;;0.00;0.00;;;;;;;;;;5036752;27;92685;-74
2022/05/21 04:11:57;;;;;;;0.30;0.30;;;;;;;;;;5036874;27;93406;-74
2022/05/21 04:14:27;;;;;;;0.00;0.00;;;;;;;;;;5036922;27;94107;-74
2022/05/21 04:16:55;;;;;;;0.00;0.00;;;;;;;;;;5036710;27;93210;-74
2022/05/21 04:19:23;;;;;;;0.00;0.00;;;;;;;;;;5037645;27;93275;-74
2022/05/21 04:21:49;;;;;;;0.00;0.00;;;;;;;;;;5035378;28;95970;-74
2022/05/21 04:24:16;;;;;;;0.00;0.00;;;;;;;;;;5040129;28;92423;-74
2022/05/21 04:26:43;;;;;;;0.00;0.00;;;;;;;;;;5037047;28;93680;-74
2022/05/21 04:29:10;;;;;;;0.00;0.00;;;;;;;;;;5037415;28;92413;-74
2022/05/21 04:31:37;;;;;;;0.00;0.00;;;;;;;;;;5036958;28;95111;-74
2022/05/21 04:34:04;;;;;;;0.00;0.00;;;;;;;;;;5036872;28;93041;-74
2022/05/21 04:36:32;;;;;;;0.00;0.00;;;;;;;;;;5036801;28;93285;-75
2022/05/21 04:38:58;;;;;;;0.05;0.05;;;;;;;;;;5037667;28;93379;-74
2022/05/21 04:41:25;;;;;;;0.00;0.00;;;;;;;;;;5036916;28;93519;-74
2022/05/21 04:43:53;;;;;;;0.05;0.05;;;;;;;;;;5037017;28;92356;-74
2022/05/21 04:46:20;;;;;;;0.00;0.00;;;;;;;;;;5038597;28;94910;-74
2022/05/21 04:48:47;;;;;;;0.00;0.00;;;;;;;;;;5037877;27;93347;-74
2022/05/21 04:51:30;;;;;;;0.00;0.00;;;;;;;;;;5040489;28;93241;-75
2022/05/21 04:53:57;;;;;;;0.00;0.00;;;;;;;;;;5040643;28;92983;-74
2022/05/21 04:56:23;;;;;;;0.10;0.10;;;;;;;;;;5040652;28;92328;-74
2022/05/21 04:59:04;;;;;;;0.00;0.00;;;;;;;;;;5040432;28;93637;-74
2022/05/21 05:01:30;;;;;;;0.00;0.00;;;;;;;;;;5039099;28;93934;-74
2022/05/21 05:03:57;;;;;;;0.35;0.22;;;;;;;;;;5040780;28;91561;-74
2022/05/21 05:06:23;;;;;;;0.00;0.00;;;;;;;;;;5040453;28;92761;-74
2022/05/21 05:08:50;;;;;;;0.00;0.00;;;;;;;;;;5043156;28;93544;-75
2022/05/21 05:11:16;;;;;;;0.20;0.20;;;;;;;;;;5038817;28;94827;-75
2022/05/21 05:13:42;;;;;;;0.00;0.00;;;;;;;;;;5040115;28;94145;-74
2022/05/21 05:16:09;;;;;;;0.05;0.05;;;;;;;;;;5039580;28;92358;-74
2022/05/21 05:18:35;;;;;;;0.00;0.00;;;;;;;;;;5040018;28;93521;-74
2022/05/21 05:21:02;;;;;;;0.00;0.00;;;;;;;;;;5039852;28;93638;-74
2022/05/21 05:23:28;;;;;;;0.00;0.00;;;;;;;;;;5040136;28;92362;-75
2022/05/21 05:25:54;;;;;;;0.10;0.10;;;;;;;;;;5039884;28;93412;-75
2022/05/21 05:28:22;;;;;;;0.80;0.80;;;;;;;;;;5043280;28;92894;-75
2022/05/21 05:30:48;;;;;;;0.00;0.00;;;;;;;;;;5039250;28;94025;-75
2022/05/21 05:33:15;;;;;;;0.10;0.10;;;;;;;;;;5039642;28;93384;-74
2022/05/21 05:35:42;;;;;;;0.10;0.10;;;;;;;;;;5038451;28;94595;-74
2022/05/21 05:38:10;;;;;;;0.10;0.10;;;;;;;;;;5039763;28;96122;-74
2022/05/21 05:40:36;;;;;;;0.00;0.00;;;;;;;;;;5039628;28;93696;-74
2022/05/21 05:43:03;;;;;;;0.00;0.00;;;;;;;;;;5039884;28;92196;-74
2022/05/21 05:45:30;;;;;;;0.10;0.10;;;;;;;;;;5039481;28;93147;-74
2022/05/21 05:47:57;;;;;;;0.00;0.00;;;;;;;;;;5039579;28;92649;-74
2022/05/21 05:50:24;;;;;;;0.10;0.10;;;;;;;;;;5042786;28;92263;-74
2022/05/21 05:52:50;;;;;;;0.10;0.10;;;;;;;;;;5040028;28;92826;-74
2022/05/21 05:55:18;;;;;;;0.10;0.10;;;;;;;;;;5039749;28;92162;-75
2022/05/21 05:57:49;;;;;;;0.10;0.10;;;;;;;;;;5039553;28;93746;-74
2022/05/21 06:00:15;;;;;;;0.10;0.10;;;;;;;;;;5037466;27;96147;-75
2022/05/21 06:03:01;;;;;;;1.77;1.48;;;;;;;;;;5039143;28;92534;-74
2022/05/21 06:05:31;;;;;;;0.10;0.10;;;;;;;;;;5038996;28;93298;-74
2022/05/21 06:07:59;;;;;;;0.22;0.22;;;;;;;;;;5039243;28;93685;-74
2022/05/21 06:10:27;;;;;;;0.10;0.10;;;;;;;;;;5038971;28;92499;-75
2022/05/21 06:12:56;;;;;;;0.10;0.10;;;;;;;;;;5042044;28;92759;-75
2022/05/21 06:15:23;;;;;;;0.10;0.10;;;;;;;;;;5039140;28;92666;-74
2022/05/21 06:17:52;;;;;;;0.20;0.20;;;;;;;;;;5039585;28;93445;-74
2022/05/21 06:20:21;;;;;;;0.52;0.52;;;;;;;;;;5038792;28;93405;-73
2022/05/21 06:22:49;;;;;;;0.10;0.10;;;;;;;;;;5038592;28;92318;-74
2022/05/21 06:25:17;;;;;;;0.00;0.00;;;;;;;;;;5037021;28;95151;-75
2022/05/21 06:27:44;;;;;;;0.20;0.20;;;;;;;;;;5038942;28;93218;-73
2022/05/21 06:30:11;;;;;;;0.10;0.10;;;;;;;;;;5038965;28;92509;-74
2022/05/21 06:32:38;;;;;;;0.10;0.10;;;;;;;;;;5040647;28;93439;-75
2022/05/21 06:35:04;;;;;;;0.15;0.15;;;;;;;;;;5042157;28;93539;-75
2022/05/21 06:37:31;;;;;;;0.20;0.20;;;;;;;;;;5038677;28;93748;-75
2022/05/21 06:39:57;;;;;;;0.10;0.10;;;;;;;;;;5038776;28;93672;-75
2022/05/21 06:42:23;;;;;;;0.05;0.05;;;;;;;;;;5039427;28;92598;-75
2022/05/21 06:44:50;;;;;;;0.00;0.00;;;;;;;;;;5038803;28;92849;-75
2022/05/21 06:47:17;;;;;;;0.30;0.30;;;;;;;;;;5038497;28;93716;-75
2022/05/21 06:49:43;;;;;;;0.17;0.17;;;;;;;;;;5037134;28;94605;-74
2022/05/21 06:52:09;;;;;;;0.25;0.25;;;;;;;;;;5037763;28;95278;-74
2022/05/21 06:54:36;;;;;;;0.10;0.10;;;;;;;;;;5038398;28;93204;-73
2022/05/21 06:57:05;;;;;;;0.05;0.05;;;;;;;;;;5041809;28;92292;-75
2022/05/21 06:59:32;;;;;;;0.00;0.00;;;;;;;;;;5038421;28;93110;-76
2022/05/21 07:01:58;;;;;;;0.00;0.00;;;;;;;;;;5038012;28;92343;-74
2022/05/21 07:09:57;;;;;;;0.20;0.20;;;;;;;;;;5038083;28;92270;-75
2022/05/21 07:12:26;;;;;;;0.10;0.10;;;;;;;;;;5037855;27;93237;-76
2022/05/21 07:14:52;;;;;;;0.00;0.00;;;;;;;;;;5036091;28;97323;-77
2022/05/21 07:17:18;;;;;;;1.55;0.15;;;;;;;;;;5037986;28;92279;-76
2022/05/21 07:19:45;;;;;;;4.85;1.17;;;;;;;;;;5041232;28;93322;-76
2022/05/21 07:22:11;;;;;;;0.88;0.88;;;;;;;;;;5037772;28;92344;-75
2022/05/21 07:24:38;;;;;;;0.08;0.08;;;;;;;;;;5038259;28;93313;-74
2022/05/21 07:27:06;;;;;;;0.43;0.43;;;;;;;;;;5037901;28;93411;-74
2022/05/21 07:29:37;;;;;;;0.15;0.15;;;;;;;;;;5038057;28;92404;-77
2022/05/21 07:32:05;;;;;;;0.10;0.10;;;;;;;;;;5020556;28;93546;-77
2022/05/21 07:34:32;;;;;;;0.10;0.10;;;;;;;;;;5037719;28;93681;-78
2022/05/21 07:36:58;;;;;;;0.77;0.40;;;;;;;;;;5037893;28;92320;-79
2022/05/21 07:39:24;;;;;;;0.10;0.10;;;;;;;;;;5039322;28;94962;-79
2022/05/21 07:41:51;;;;;;;1.50;0.40;;;;;;;;;;5037950;28;92197;-78
2022/05/21 07:44:17;;;;;;;0.10;0.10;;;;;;;;;;5037293;28;93535;-81
2022/05/21 07:47:16;;;;;;;0.30;0.30;;;;;;;;;;5037557;28;93254;-82
2022/05/21 07:50:07;;;;;;;0.10;0.10;;;;;;;;;;4980873;28;92396;-80
2022/05/21 07:52:39;;;;;;;0.13;0.10;;;;;;;;;;5004088;28;95974;-80
2022/05/21 07:55:12;;;;;;;0.00;0.00;;;;;;;;;;5019290;28;95797;-79
2022/05/21 07:57:42;;;;;;;0.00;0.00;;;;;;;;;;5037993;28;91545;-80
2022/05/21 08:00:26;;;;;;;0.10;0.10;;;;;;;;;;5037550;28;92203;-79
2022/05/21 08:03:00;;;;;;;0.10;0.10;;;;;;;;;;5006026;28;96197;-78
2022/05/21 08:05:30;;;;;;;4.75;0.38;;;;;;;;;;5001529;28;96091;-80
2022/05/21 08:08:03;;;;;;;0.00;0.00;;;;;;;;;;5020184;28;93226;-81
2022/05/21 08:10:34;;;;;;;0.30;0.30;;;;;;;;;;5019563;28;92237;-79
2022/05/21 08:13:02;;;;;;;0.10;0.10;;;;;;;;;;5037646;28;93164;-80
2022/05/21 08:15:29;;;;;;;0.10;0.10;;;;;;;;;;5019005;28;96284;-83
2022/05/21 08:18:00;;;;;;;0.00;0.00;;;;;;;;;;5019473;28;92299;-80
2022/05/21 08:20:57;;;;;;;;;;;;;;;;;;;;;
2022/05/21 08:27:00;;;;;;;0.10;0.10;;;;;;;;;;5021433;28;92347;-80
2022/05/21 08:29:35;;;;;;;0.00;0.00;;;;;;;;;;5003349;28;95498;-78
2022/05/21 08:32:09;;;;;;;0.10;0.10;;;;;;;;;;5001234;28;94861;-80
2022/05/21 08:38:20;;;;;;;0.20;0.20;;;;;;;;;;4980839;28;95571;-79
2022/05/21 08:41:21;;;;;;;0.03;0.03;;;;;;;;;;4959281;28;92261;-80
2022/05/21 08:43:59;;;;;;;0.00;0.00;;;;;;;;;;5019827;27;96779;-80
2022/05/21 08:46:55;;;;;;;0.85;0.85;;;;;;;;;;5019949;27;93204;-80
2022/05/21 08:49:29;;;;;;;0.00;0.00;;;;;;;;;;5018669;27;92225;-82
2022/05/21 08:52:14;;;;;;;0.10;0.10;;;;;;;;;;5006858;27;95226;-79
2022/05/21 08:54:48;;;;;;;0.05;0.05;;;;;;;;;;5017847;27;92726;-80
2022/05/21 08:57:18;;;;;;;0.47;0.33;;;;;;;;;;5035950;27;94099;-80
2022/05/21 08:59:50;;;;;;;0.10;0.10;;;;;;;;;;5034146;27;97286;-79
2022/05/21 09:02:18;;;;;;;0.10;0.10;;;;;;;;;;5019351;27;92580;-79
2022/05/21 09:04:45;;;;;;;0.10;0.10;;;;;;;;;;5018298;27;94544;-78
2022/05/21 09:07:17;;;;;;;0.00;0.00;;;;;;;;;;5035947;27;93127;-80
2022/05/21 09:09:43;;;;;;;0.10;0.10;;;;;;;;;;5036039;27;92333;-75
2022/05/21 09:12:16;;;;;;;0.00;0.00;;;;;;;;;;5037836;27;93317;-77
2022/05/21 09:14:45;;;;;;;0.45;0.40;;;;;;;;;;5039033;27;93663;-76
2022/05/21 09:17:14;;;;;;;0.55;0.10;;;;;;;;;;5036365;27;91629;-76
2022/05/21 09:19:42;;;;;;;0.00;0.00;;;;;;;;;;5017970;28;94912;-75
2022/05/21 09:22:13;;;;;;;0.00;0.00;;;;;;;;;;5038536;27;92319;-76
2022/05/21 09:25:01;;;;;;;0.00;0.00;;;;;;;;;;5019822;27;94720;-76
2022/05/21 09:27:33;;;;;;;1.52;0.88;;;;;;;;;;5035454;27;94428;-76
2022/05/21 09:30:10;;;;;;;0.20;0.20;;;;;;;;;;5035866;27;92403;-75
2022/05/21 09:32:37;;;;;;;0.08;0.08;;;;;;;;;;5038728;27;93393;-76
2022/05/21 09:35:05;;;;;;;0.10;0.10;;;;;;;;;;5040695;27;94938;-76
2022/05/21 09:37:32;;;;;;;0.00;0.00;;;;;;;;;;5042352;27;92324;-76
2022/05/21 09:39:59;;;;;;;14.00;0.40;;;;;;;;;;5038830;27;94130;-73
2022/05/21 09:45:22;;;;;;;0.10;0.10;;;;;;;;;;5038626;27;92764;-75
2022/05/21 09:47:49;;;;;;;0.20;0.20;;;;;;;;;;5038962;27;94143;-76
2022/05/21 09:50:20;;;;;;;2.20;0.73;;;;;;;;;;5036897;27;95081;-75
2022/05/21 09:52:49;;;;;;;0.10;0.10;;;;;;;;;;5038225;27;97135;-75
2022/05/21 09:55:19;;;;;;;0.47;0.47;;;;;;;;;;5038893;27;93436;-75
2022/05/21 09:57:50;;;;;;;0.00;0.00;;;;;;;;;;5041734;27;93065;-74
2022/05/21 10:00:22;;;;;;;0.10;0.10;;;;;;;;;;5038936;27;93490;-75
2022/05/21 10:02:50;;;;;;;0.32;0.30;;;;;;;;;;5038712;27;92386;-74
2022/05/21 10:05:28;;;;;;;0.75;0.30;;;;;;;;;;5038587;27;92910;-75
2022/05/21 10:10:58;;;;;;;0.10;0.10;;;;;;;;;;5038711;27;92453;-74
2022/05/21 10:13:37;;;;;;;0.00;0.00;;;;;;;;;;5020491;27;96273;-74
2022/05/21 10:16:22;;;;;;;0.10;0.10;;;;;;;;;;5036787;27;95880;-76
2022/05/21 10:18:52;;;;;;;0.10;0.10;;;;;;;;;;5038212;27;92342;-76
2022/05/21 10:21:29;;;;;;;0.57;0.47;;;;;;;;;;5042335;27;93640;-77
2022/05/21 10:24:00;;;;;;;0.10;0.10;;;;;;;;;;5038685;27;92373;-78
2022/05/21 10:26:38;;;;;;;0.10;0.10;;;;;;;;;;5039495;27;95030;-77
2022/05/21 10:29:23;;;;;;;0.00;0.00;;;;;;;;;;5037978;27;93453;-77
2022/05/21 10:31:49;;;;;;;0.10;0.10;;;;;;;;;;5038352;27;92398;-77
2022/05/21 10:34:19;;;;;;;0.17;0.17;;;;;;;;;;5038624;27;93362;-75
2022/05/21 10:36:51;;;;;;;1.08;0.30;;;;;;;;;;5038195;27;93675;-78
2022/05/21 10:39:33;;;;;;;0.10;0.10;;;;;;;;;;5020545;28;93166;-76
2022/05/21 10:42:19;;;;;;;0.10;0.10;;;;;;;;;;5039579;27;95947;-78
2022/05/21 10:44:57;;;;;;;0.30;0.30;;;;;;;;;;4991143;27;93541;-77
2022/05/21 10:47:33;;;;;;;0.20;0.20;;;;;;;;;;5037292;27;93492;-76
2022/05/21 10:50:18;;;;;;;0.00;0.00;;;;;;;;;;5037666;27;93575;-77
2022/05/21 10:52:52;;;;;;;0.10;0.10;;;;;;;;;;5039936;27;92790;-76
2022/05/21 10:55:24;;;;;;;0.10;0.10;;;;;;;;;;5037899;27;94350;-76
2022/05/21 10:57:54;;;;;;;0.10;0.10;;;;;;;;;;5037622;27;93528;-75
2022/05/21 11:00:27;;;;;;;0.00;0.00;;;;;;;;;;5038127;27;91663;-77
2022/05/21 11:03:12;;;;;;;0.00;0.00;;;;;;;;;;5019109;28;92520;-81
2022/05/21 11:05:57;;;;;;;0.10;0.10;;;;;;;;;;5017608;28;94179;-75
2022/05/21 11:08:42;;;;;;;0.00;0.00;;;;;;;;;;5019079;28;94759;-76
2022/05/21 11:11:11;;;;;;;0.10;0.10;;;;;;;;;;5017505;28;93114;-76
2022/05/21 11:13:57;;;;;;;0.05;0.05;;;;;;;;;;5020638;28;92315;-76
2022/05/21 11:16:41;;;;;;;0.00;0.00;;;;;;;;;;5016424;28;94339;-78
2022/05/21 11:19:19;;;;;;;3.50;1.17;;;;;;;;;;5017034;28;94202;-76
2022/05/21 11:22:08;;;;;;;0.10;0.10;;;;;;;;;;5020565;28;94617;-78
2022/05/21 11:24:37;;;;;;;0.20;0.20;;;;;;;;;;5006763;28;94032;-75
2022/05/21 11:27:18;;;;;;;0.00;0.00;;;;;;;;;;5017386;28;93647;-78
2022/05/21 11:29:55;;;;;;;0.00;0.00;;;;;;;;;;5017186;28;92483;-76
2022/05/21 11:38:05;;;;;;;0.10;0.10;;;;;;;;;;5016994;28;95651;-79
2022/05/21 11:46:56;;;;;;;0.00;0.00;;;;;;;;;;5009635;28;93378;-77
2022/05/21 11:49:41;;;;;;;0.10;0.10;;;;;;;;;;5017624;28;92694;-76
2022/05/21 11:52:30;;;;;;;0.05;0.05;;;;;;;;;;5025711;28;92985;-76
2022/05/21 11:54:57;;;;;;;0.00;0.00;;;;;;;;;;5030083;28;92762;-77
2022/05/21 11:57:34;;;;;;;0.08;0.08;;;;;;;;;;5037478;27;92265;-77
2022/05/21 12:00:06;;;;;;;0.10;0.10;;;;;;;;;;5037631;28;93268;-76
2022/05/21 12:02:59;;;;;;;0.10;0.10;;;;;;;;;;5033904;28;96910;-75
2022/05/21 12:05:31;;;;;;;0.32;0.15;;;;;;;;;;5037213;28;92339;-80
2022/05/21 12:08:09;;;;;;;10.57;0.57;;;;;;;;;;5037432;28;93682;-78
2022/05/21 12:10:53;;;;;;;0.10;0.10;;;;;;;;;;5037612;28;93771;-78
2022/05/21 12:13:22;;;;;;;0.70;0.65;;;;;;;;;;5037329;28;92459;-77
2022/05/21 12:15:52;;;;;;;0.10;0.10;;;;;;;;;;5037340;28;92290;-76
2022/05/21 12:18:25;;;;;;;0.55;0.55;;;;;;;;;;5040424;28;93228;-76
2022/05/21 12:20:54;;;;;;;0.00;0.00;;;;;;;;;;5037837;28;93751;-78
2022/05/21 12:23:32;;;;;;;0.10;0.10;;;;;;;;;;5037136;28;93650;-79
2022/05/21 12:26:03;;;;;;;0.05;0.05;;;;;;;;;;5036774;28;92322;-77
2022/05/21 12:28:42;;;;;;;0.00;0.00;;;;;;;;;;5033488;28;94935;-77
2022/05/21 12:31:12;;;;;;;0.00;0.00;;;;;;;;;;5036902;28;93590;-78
2022/05/21 12:33:43;;;;;;;0.10;0.10;;;;;;;;;;5037534;28;92224;-76
2022/05/21 12:36:11;;;;;;;;;;;;;;;;;;5037364;28;93880;-78
2022/05/21 12:38:38;;;;;;;0.10;0.10;;;;;;;;;;5034455;28;117095;-79
2022/05/21 12:41:07;;;;;;;0.10;0.10;;;;;;;;;;5040398;28;92475;-76
2022/05/21 12:43:44;;;;;;;1.20;0.60;;;;;;;;;;5036850;28;94062;-76
2022/05/21 12:46:18;;;;;;;0.20;0.13;;;;;;;;;;5040591;28;91649;-78
2022/05/21 12:48:45;;;;;;;0.10;0.10;;;;;;;;;;5039137;27;92408;-76
2022/05/21 12:51:20;;;;;;;0.10;0.10;;;;;;;;;;5036626;27;93538;-78
2022/05/21 12:54:05;;;;;;;0.00;0.00;;;;;;;;;;5035724;28;94816;-79
2022/05/21 12:56:37;;;;;;;0.10;0.10;;;;;;;;;;5037031;28;93982;-76
2022/05/21 12:59:05;;;;;;;1.35;0.22;;;;;;;;;;5036628;28;93665;-78
2022/05/21 13:01:31;;;;;;;0.10;0.10;;;;;;;;;;5037342;27;92402;-80
2022/05/21 13:03:59;;;;;;;0.13;0.13;;;;;;;;;;5060132;27;93401;-80
2022/05/21 13:06:28;;;;;;;2.28;0.22;;;;;;;;;;5057067;27;93027;-75
2022/05/21 13:08:54;;;;;;;0.10;0.10;;;;;;;;;;5038808;27;94691;-75
2022/05/21 13:11:22;;;;;;;0.10;0.10;;;;;;;;;;5060161;27;93134;-77
2022/05/21 13:13:58;;;;;;;0.10;0.10;;;;;;;;;;5060614;27;92305;-75
2022/05/21 13:16:25;;;;;;;0.40;0.40;;;;;;;;;;5060520;27;92545;-76
2022/05/21 13:19:11;;;;;;;0.00;0.00;;;;;;;;;;5058395;27;96737;-76
2022/05/21 13:21:42;;;;;;;0.05;0.05;;;;;;;;;;5060420;27;92296;-76
2022/05/21 13:24:08;;;;;;;;;;;;;;;;;;5060969;27;93777;-74
2022/05/21 13:26:36;;;;;;;0.10;0.10;;;;;;;;;;5061455;27;122677;-73
2022/05/21 13:29:21;;;;;;;0.10;0.10;;;;;;;;;;5040854;27;92777;-72
2022/05/21 13:31:49;;;;;;;0.47;0.47;;;;;;;;;;5039109;27;94124;-72
2022/05/21 13:34:19;;;;;;;0.00;0.00;;;;;;;;;;5039587;27;92287;-71
2022/05/21 13:36:57;;;;;;;0.10;0.10;;;;;;;;;;5039517;27;93714;-72
2022/05/21 13:39:26;;;;;;;0.10;0.10;;;;;;;;;;5039062;27;94124;-72
2022/05/21 13:41:54;;;;;;;0.10;0.10;;;;;;;;;;5039340;27;92273;-72
2022/05/21 13:44:24;;;;;;;0.03;0.03;;;;;;;;;;5037863;27;94788;-72
2022/05/21 13:46:54;;;;;;;0.47;0.28;;;;;;;;;;5039701;27;93569;-72
2022/05/21 13:49:23;;;;;;;0.10;0.10;;;;;;;;;;5042036;27;92324;-73
2022/05/21 13:51:50;;;;;;;0.10;0.10;;;;;;;;;;5038899;27;92795;-72
2022/05/21 13:54:17;;;;;;;0.10;0.10;;;;;;;;;;5021511;28;92988;-72
2022/05/21 13:56:43;;;;;;;0.10;0.10;;;;;;;;;;5039780;27;94407;-72
2022/05/21 13:59:13;;;;;;;0.10;0.10;;;;;;;;;;5038749;27;93722;-72
2022/05/21 14:01:52;;;;;;;0.10;0.10;;;;;;;;;;5039109;27;91817;-74
2022/05/21 14:04:35;;;;;;;0.25;0.25;;;;;;;;;;5038778;27;92712;-72
2022/05/21 14:07:02;;;;;;;0.10;0.10;;;;;;;;;;5038018;27;94802;-73
2022/05/21 14:09:43;;;;;;;0.10;0.10;;;;;;;;;;5038534;27;94753;-73
2022/05/21 14:12:18;;;;;;;0.20;0.20;;;;;;;;;;5038654;27;93819;-73
2022/05/21 14:14:45;;;;;;;0.00;0.00;;;;;;;;;;5039014;27;93174;-73
2022/05/21 14:17:20;;;;;;;0.10;0.10;;;;;;;;;;5040184;27;92900;-73
2022/05/21 14:20:06;;;;;;;0.20;0.20;;;;;;;;;;5038539;27;93741;-75
2022/05/21 14:22:34;;;;;;;0.00;0.00;;;;;;;;;;5037383;27;92277;-81
2022/05/21 14:25:38;;;;;;;0.40;0.40;;;;;;;;;;5038096;27;93412;-78
2022/05/21 14:28:14;;;;;;;0.03;0.03;;;;;;;;;;5011869;27;93398;-79
2022/05/21 14:30:45;;;;;;;0.00;0.00;;;;;;;;;;5022006;27;92430;-79
2022/05/21 14:33:12;;;;;;;0.10;0.10;;;;;;;;;;5025567;28;94872;-78
2022/05/21 14:35:39;;;;;;;0.10;0.10;;;;;;;;;;5019235;27;95086;-77
2022/05/21 14:38:05;;;;;;;0.10;0.10;;;;;;;;;;5020124;28;99194;-78
2022/05/21 14:40:43;;;;;;;0.10;0.10;;;;;;;;;;5038184;27;92658;-77
2022/05/21 14:43:14;;;;;;;0.10;0.10;;;;;;;;;;5038417;28;92288;-75
2022/05/21 14:45:40;;;;;;;0.20;0.20;;;;;;;;;;5037887;27;93825;-81
2022/05/21 14:48:07;;;;;;;0.10;0.10;;;;;;;;;;5045483;27;93774;-77
2022/05/21 14:53:27;;;;;;;0.22;0.22;;;;;;;;;;5038886;27;93352;-77
2022/05/21 14:55:54;;;;;;;0.10;0.10;;;;;;;;;;5041958;27;93489;-77
2022/05/21 14:58:22;;;;;;;0.10;0.10;;;;;;;;;;5039581;27;94262;-78
2022/05/21 15:00:48;;;;;;;0.10;0.10;;;;;;;;;;5036242;27;95891;-77
2022/05/21 15:03:15;;;;;;;0.10;0.10;;;;;;;;;;5037665;27;92399;-77
2022/05/21 15:05:43;;;;;;;0.10;0.10;;;;;;;;;;5037762;27;92811;-80
2022/05/21 15:08:16;;;;;;;0.10;0.10;;;;;;;;;;5023697;27;96517;-75
2022/05/21 15:10:43;;;;;;;0.30;0.30;;;;;;;;;;5037668;27;92447;-79
2022/05/21 15:13:10;;;;;;;0.10;0.10;;;;;;;;;;5037713;27;93285;-76
2022/05/21 15:15:36;;;;;;;0.10;0.10;;;;;;;;;;5037416;27;93883;-78
2022/05/21 15:18:02;;;;;;;0.10;0.10;;;;;;;;;;5041265;27;91581;-79
2022/05/21 15:20:29;;;;;;;0.00;0.00;;;;;;;;;;5019652;27;95602;-77
2022/05/21 15:22:55;;;;;;;0.10;0.10;;;;;;;;;;5037820;27;92453;-77
2022/05/21 15:25:22;;;;;;;0.10;0.10;;;;;;;;;;5035942;27;94854;-76
2022/05/21 15:27:50;;;;;;;0.10;0.10;;;;;;;;;;5019829;28;93994;-76
2022/05/21 15:30:20;;;;;;;0.10;0.10;;;;;;;;;;5037141;27;92390;-77
2022/05/21 15:32:55;;;;;;;0.10;0.10;;;;;;;;;;5006764;28;94943;-81
2022/05/21 15:35:21;;;;;;;0.10;0.10;;;;;;;;;;5019988;28;92970;-80
2022/05/21 15:37:53;;;;;;;0.03;0.03;;;;;;;;;;5007656;28;92587;-80
2022/05/21 15:40:22;;;;;;;0.00;0.00;;;;;;;;;;5002210;28;96105;-77
2022/05/21 15:42:52;;;;;;;0.10;0.10;;;;;;;;;;4990376;28;91782;-79
2022/05/21 15:45:34;;;;;;;0.10;0.10;;;;;;;;;;5009444;28;92408;-80